Miner, Montana
Current Conditions -  °F | °C
As of 11:53 PM on Saturday 22 Nov 2014 (Local Time) from KLVM Reporting Station
Overcast Overcast  
Wind Chill: 28°   Ceiling: 6000
Heat Index: 37°   Visibility: 10mi
Dew Point: 18°   Wind: 15mph
Humidity: 46%   Direction: 250°WSW
Pressure: 29.72"   Gusts: 22mph
Location:  45.199°N, 110.818°W
Report Text: KLVM 230653Z AUTO 25013G19KT 10SM OVC060 03/M08 A2972 RMK AO2 SLP073 T00281078 400830022
Loading
Personal Weather Stations






























Interactive Weather Map New forecast layout! Learn more

10-Day Weather Forecast

Advertisements
Track Severe Weather on mobile